createdAt,value
2023-05-12T00:00:06.243Z,57.10
2023-05-12T00:02:32.924Z,57.27
2023-05-12T00:04:59.903Z,57.22
2023-05-12T00:07:26.796Z,57.17
2023-05-12T00:09:53.406Z,57.89
2023-05-12T00:12:20.127Z,57.63
2023-05-12T00:14:46.729Z,57.41
2023-05-12T00:17:13.962Z,58.45
2023-05-12T00:19:50.106Z,58.23
2023-05-12T00:22:17.279Z,58.13
2023-05-12T00:24:44.441Z,58.13
2023-05-12T00:27:11.095Z,58.17
2023-05-12T00:29:37.784Z,58.38
2023-05-12T00:32:04.630Z,59.46
2023-05-12T00:34:31.525Z,59.16
2023-05-12T00:36:58.172Z,58.89
2023-05-12T00:39:24.813Z,58.82
2023-05-12T00:41:57.856Z,58.74
2023-05-12T00:44:24.550Z,58.52
2023-05-12T00:46:51.261Z,59.65
2023-05-12T00:49:18.091Z,59.21
2023-05-12T00:51:44.733Z,59.43
2023-05-12T00:54:11.344Z,59.39
2023-05-12T00:56:39.536Z,59.15
2023-05-12T00:59:06.626Z,59.18
2023-05-12T01:01:33.953Z,59.09
2023-05-12T01:04:00.948Z,59.28
2023-05-12T01:06:49.528Z,60.43
2023-05-12T01:09:16.203Z,60.77
2023-05-12T01:11:42.853Z,60.41
2023-05-12T01:14:09.501Z,60.05
2023-05-12T01:16:43.266Z,60.03
2023-05-12T01:19:12.844Z,60.79
2023-05-12T01:21:39.568Z,60.80
2023-05-12T01:24:07.815Z,60.44
2023-05-12T01:26:34.593Z,60.99
2023-05-12T01:29:01.760Z,60.88
2023-05-12T01:31:29.351Z,61.07
2023-05-12T01:33:55.975Z,60.67
2023-05-12T01:36:22.564Z,60.82
2023-05-12T01:38:49.188Z,60.80
2023-05-12T01:41:16.574Z,60.69
2023-05-12T01:43:43.178Z,61.61
2023-05-12T01:46:11.001Z,61.91
2023-05-12T01:48:37.890Z,61.57
2023-05-12T01:54:23.784Z,60.93
2023-05-12T01:56:50.383Z,60.90
2023-05-12T01:59:17.001Z,61.63
2023-05-12T02:01:43.793Z,61.07
2023-05-12T02:04:10.647Z,61.31
2023-05-12T02:06:37.393Z,61.69
2023-05-12T02:09:04.248Z,61.35
2023-05-12T02:11:31.196Z,61.39
2023-05-12T02:13:58.693Z,61.67
2023-05-12T02:16:25.388Z,61.62
2023-05-12T02:18:52.107Z,61.62
2023-05-12T02:21:18.948Z,62.04
2023-05-12T02:23:45.581Z,61.72
2023-05-12T02:26:12.209Z,61.55
2023-05-12T02:28:38.922Z,61.52
2023-05-12T02:31:05.605Z,61.64
2023-05-12T02:33:32.388Z,61.57
2023-05-12T02:35:59.007Z,61.43
2023-05-12T02:38:26.096Z,61.41
2023-05-12T02:40:52.790Z,62.02
2023-05-12T02:43:19.401Z,61.97
2023-05-12T02:45:46.057Z,61.93
2023-05-12T02:48:12.819Z,62.26
2023-05-12T02:50:39.475Z,62.08
2023-05-12T02:53:06.190Z,62.34
2023-05-12T02:55:32.850Z,62.83
2023-05-12T02:57:59.455Z,62.54
2023-05-12T03:00:26.188Z,62.85
2023-05-12T03:02:52.826Z,62.71
2023-05-12T03:05:19.495Z,63.13
2023-05-12T03:07:48.654Z,63.25
2023-05-12T03:10:16.598Z,63.69
2023-05-12T03:12:43.209Z,63.87
2023-05-12T03:15:10.241Z,63.57
2023-05-12T03:17:36.921Z,63.53
2023-05-12T03:20:04.559Z,63.29
2023-05-12T03:22:31.249Z,63.81
2023-05-12T03:24:57.860Z,63.51
2023-05-12T03:27:24.472Z,63.50
2023-05-12T03:29:51.233Z,63.25
2023-05-12T03:32:18.064Z,63.32
2023-05-12T03:34:44.799Z,63.42
2023-05-12T03:37:11.685Z,63.41
2023-05-12T03:39:38.862Z,63.33
2023-05-12T03:42:05.894Z,63.41
2023-05-12T03:44:32.544Z,63.05
2023-05-12T03:46:59.253Z,63.19
2023-05-12T03:49:26.184Z,62.97
2023-05-12T03:51:52.825Z,63.35
2023-05-12T03:54:19.461Z,63.10
2023-05-12T03:56:46.067Z,62.97
2023-05-12T03:59:13.124Z,62.93
2023-05-12T04:01:39.803Z,62.74
2023-05-12T04:04:06.427Z,62.47
2023-05-12T04:06:33.164Z,62.49
2023-05-12T04:08:59.750Z,62.68
2023-05-12T04:11:26.346Z,62.59
2023-05-12T04:13:53.028Z,61.84
2023-05-12T04:16:19.823Z,62.07
2023-05-12T04:18:46.642Z,61.64
2023-05-12T04:21:13.373Z,60.89
2023-05-12T04:23:40.476Z,60.64
2023-05-12T04:26:07.331Z,60.34
2023-05-12T04:28:34.023Z,60.33
2023-05-12T04:31:04.622Z,59.67
2023-05-12T04:33:31.421Z,59.81
2023-05-12T04:35:58.313Z,59.55
2023-05-12T04:38:24.986Z,59.10
2023-05-12T04:40:51.602Z,58.75
2023-05-12T04:45:47.990Z,56.94
2023-05-12T04:48:14.695Z,56.21
2023-05-12T04:50:41.491Z,55.52
2023-05-12T04:53:08.598Z,53.45
2023-05-12T04:55:36.401Z,51.74
2023-05-12T04:58:03.041Z,50.62
2023-05-12T05:00:29.664Z,50.03
2023-05-12T05:02:56.426Z,49.57
2023-05-12T05:05:23.268Z,48.86
2023-05-12T05:07:50.047Z,45.51
2023-05-12T05:10:16.773Z,44.77
2023-05-12T05:12:43.416Z,43.56
2023-05-12T05:15:11.598Z,41.82
2023-05-12T05:17:38.402Z,40.79
2023-05-12T05:20:11.394Z,40.83
2023-05-12T05:22:39.574Z,40.22
2023-05-12T05:25:06.978Z,38.90
2023-05-12T05:27:33.563Z,37.95
2023-05-12T05:30:00.229Z,37.24
2023-05-12T05:32:27.111Z,36.29
2023-05-12T05:34:53.708Z,35.10
2023-05-12T05:37:20.402Z,34.62
2023-05-12T05:39:47.040Z,33.55
2023-05-12T05:42:13.872Z,32.13
2023-05-12T05:44:40.674Z,30.51
2023-05-12T05:47:07.438Z,28.63
2023-05-12T05:49:34.070Z,27.04
2023-05-12T05:52:00.798Z,25.47
2023-05-12T05:54:27.464Z,24.05
2023-05-12T05:56:54.123Z,22.36
2023-05-12T05:59:20.708Z,21.76
2023-05-12T06:01:47.380Z,20.52
2023-05-12T06:04:14.032Z,19.23
2023-05-12T06:06:40.756Z,19.19
2023-05-12T06:09:09.029Z,19.77
2023-05-12T06:11:35.669Z,19.03
2023-05-12T06:14:02.288Z,18.52
2023-05-12T06:16:29.431Z,18.54
2023-05-12T06:18:56.192Z,18.83
2023-05-12T06:21:22.917Z,19.10
2023-05-12T06:23:51.559Z,19.52
2023-05-12T06:26:18.272Z,20.21
2023-05-12T06:28:44.996Z,20.43
2023-05-12T06:31:11.653Z,19.77
2023-05-12T06:33:38.300Z,19.79
2023-05-12T06:36:05.268Z,19.89
2023-05-12T06:38:31.890Z,19.16
2023-05-12T06:40:58.602Z,18.15
2023-05-12T06:43:25.269Z,17.92
2023-05-12T06:45:51.962Z,17.31
2023-05-12T06:48:18.555Z,17.56
2023-05-12T06:50:45.941Z,17.33
2023-05-12T06:53:12.617Z,16.79
2023-05-12T06:55:39.221Z,16.42
2023-05-12T06:58:06.104Z,16.26
2023-05-12T07:00:32.744Z,15.09
2023-05-12T07:03:12.528Z,15.56
2023-05-12T07:05:40.000Z,14.93
2023-05-12T07:08:06.641Z,14.82
2023-05-12T07:10:35.268Z,14.88
2023-05-12T07:13:02.011Z,15.17
2023-05-12T07:15:30.081Z,15.76
2023-05-12T07:17:58.637Z,16.49
2023-05-12T07:20:25.394Z,17.51
2023-05-12T07:22:54.952Z,18.35
2023-05-12T07:25:22.295Z,19.78
2023-05-12T07:27:55.328Z,20.66
2023-05-12T07:30:22.587Z,21.37
2023-05-12T07:32:49.461Z,22.59
2023-05-12T07:35:16.148Z,22.85
2023-05-12T07:37:43.025Z,23.91
2023-05-12T07:40:09.743Z,23.81
2023-05-12T07:42:36.437Z,24.83
2023-05-12T07:45:03.422Z,25.27
2023-05-12T07:47:30.112Z,27.27
2023-05-12T07:49:56.905Z,28.35
2023-05-12T07:52:24.466Z,28.79
2023-05-12T07:54:51.121Z,30.13
2023-05-12T07:57:17.806Z,30.99
2023-05-12T07:59:44.412Z,31.47
2023-05-12T08:02:11.088Z,31.94
2023-05-12T08:04:38.205Z,32.54
2023-05-12T08:07:04.902Z,33.47
2023-05-12T08:09:31.585Z,32.64
2023-05-12T08:11:58.242Z,32.34
2023-05-12T08:14:26.360Z,33.17
2023-05-12T08:16:53.108Z,33.75
2023-05-12T08:19:19.815Z,32.56
2023-05-12T08:21:46.423Z,32.73
2023-05-12T08:24:13.072Z,33.59
2023-05-12T08:26:39.714Z,33.03
2023-05-12T08:29:06.921Z,33.79
2023-05-12T08:31:33.646Z,32.84
2023-05-12T08:34:09.774Z,32.83
2023-05-12T08:36:40.545Z,32.62
2023-05-12T08:39:08.392Z,30.22
2023-05-12T08:41:52.401Z,31.94
2023-05-12T08:44:19.174Z,30.75
2023-05-12T08:46:46.790Z,30.07
2023-05-12T08:49:16.546Z,30.14
2023-05-12T08:51:48.108Z,30.94
2023-05-12T08:54:21.361Z,30.65
2023-05-12T08:59:18.074Z,32.20
2023-05-12T09:01:47.320Z,32.26
2023-05-12T09:04:17.565Z,32.03
2023-05-12T09:06:44.422Z,33.24
2023-05-12T09:09:12.295Z,31.91
2023-05-12T09:11:38.902Z,32.67
2023-05-12T09:14:08.829Z,32.46
2023-05-12T09:17:00.689Z,32.05
2023-05-12T09:19:27.420Z,32.50
2023-05-12T09:21:54.218Z,32.39
2023-05-12T09:24:22.332Z,32.50
2023-05-12T09:26:49.557Z,33.26
2023-05-12T09:29:27.796Z,34.79
2023-05-12T09:31:58.797Z,34.28
2023-05-12T09:34:30.700Z,34.41
2023-05-12T09:36:58.652Z,34.95
2023-05-12T09:39:25.760Z,32.43
2023-05-12T09:41:55.084Z,32.24
2023-05-12T09:44:22.088Z,30.87
2023-05-12T09:46:48.700Z,33.19
2023-05-12T09:49:22.270Z,32.96
2023-05-12T09:52:01.558Z,32.40
2023-05-12T09:54:29.038Z,32.94
2023-05-12T09:57:02.746Z,35.22
2023-05-12T09:59:36.409Z,36.00
2023-05-12T10:02:05.504Z,32.07
2023-05-12T10:04:40.237Z,28.02
2023-05-12T10:07:08.495Z,27.16
2023-05-12T10:09:35.303Z,27.28
2023-05-12T10:12:03.154Z,28.93
2023-05-12T10:14:29.851Z,30.43
2023-05-12T10:16:56.688Z,26.59
2023-05-12T10:19:23.340Z,27.35
2023-05-12T10:21:49.951Z,29.11
2023-05-12T10:24:19.432Z,27.27
2023-05-12T10:26:46.036Z,27.70
2023-05-12T10:29:12.867Z,29.02
2023-05-12T10:31:39.740Z,28.66
2023-05-12T10:34:06.947Z,30.35
2023-05-12T10:36:46.359Z,29.16
2023-05-12T10:39:15.520Z,29.86
2023-05-12T10:41:42.823Z,29.93
2023-05-12T10:44:12.316Z,31.52
2023-05-12T10:46:38.953Z,29.97
2023-05-12T10:49:12.474Z,27.14
2023-05-12T10:51:45.227Z,27.96
2023-05-12T10:54:18.457Z,27.97
2023-05-12T10:56:45.505Z,28.27
2023-05-12T10:59:24.552Z,29.11
2023-05-12T11:02:02.300Z,29.27
2023-05-12T11:04:48.228Z,29.86
2023-05-12T11:07:16.737Z,30.95
2023-05-12T11:09:56.508Z,34.08
2023-05-12T11:12:24.034Z,34.85
2023-05-12T11:14:50.630Z,35.24
2023-05-12T11:17:17.303Z,34.88
2023-05-12T11:19:48.430Z,35.49
2023-05-12T11:22:17.851Z,35.29
2023-05-12T11:24:44.469Z,36.13
2023-05-12T11:27:18.881Z,37.24
2023-05-12T11:29:51.784Z,37.39
2023-05-12T11:32:18.431Z,37.52
2023-05-12T11:34:45.471Z,38.11
2023-05-12T11:37:12.164Z,38.21
2023-05-12T11:39:38.790Z,38.45
2023-05-12T11:42:12.716Z,38.78
2023-05-12T11:44:50.103Z,38.52
2023-05-12T11:47:17.385Z,38.17
2023-05-12T11:49:51.772Z,37.85
2023-05-12T11:52:19.753Z,37.81
2023-05-12T11:54:53.510Z,38.17
2023-05-12T11:57:33.515Z,38.91
2023-05-12T12:00:09.876Z,39.88
2023-05-12T12:02:43.380Z,39.70
2023-05-12T12:05:17.876Z,40.01
2023-05-12T12:07:44.774Z,39.62
2023-05-12T12:10:12.912Z,40.48
2023-05-12T12:12:40.438Z,40.24
2023-05-12T12:15:07.724Z,40.40
2023-05-12T12:17:34.684Z,40.29
2023-05-12T12:20:01.662Z,40.73
2023-05-12T12:22:32.607Z,39.84
2023-05-12T12:24:59.214Z,39.82
2023-05-12T12:27:26.035Z,39.20
2023-05-12T12:29:52.647Z,39.46
2023-05-12T12:32:19.686Z,40.25
2023-05-12T12:34:46.478Z,40.28
2023-05-12T12:37:13.401Z,40.66
2023-05-12T12:39:40.043Z,40.28
2023-05-12T12:42:06.704Z,39.75
2023-05-12T12:44:33.352Z,39.84
2023-05-12T12:46:59.980Z,39.84
2023-05-12T12:49:26.970Z,39.32
2023-05-12T12:51:53.597Z,39.04
2023-05-12T12:54:20.233Z,38.99
2023-05-12T12:56:47.230Z,39.82
2023-05-12T12:59:13.965Z,39.12
2023-05-12T13:01:40.746Z,39.32
2023-05-12T13:04:07.426Z,39.58
2023-05-12T13:06:34.764Z,40.37
2023-05-12T13:09:01.799Z,40.97
2023-05-12T13:11:28.900Z,41.86
2023-05-12T13:13:55.735Z,43.95
2023-05-12T13:16:22.486Z,44.66
2023-05-12T13:18:49.406Z,43.34
2023-05-12T13:21:16.253Z,43.67
2023-05-12T13:23:42.977Z,44.99
2023-05-12T13:26:09.624Z,44.48
2023-05-12T13:28:36.324Z,43.50
2023-05-12T13:31:03.036Z,43.33
2023-05-12T13:33:29.841Z,43.25
2023-05-12T13:35:57.081Z,41.75
2023-05-12T13:38:23.727Z,41.66
2023-05-12T13:40:51.128Z,41.71
2023-05-12T13:43:18.457Z,42.69
2023-05-12T13:45:45.124Z,40.25
2023-05-12T13:48:11.850Z,38.81
2023-05-12T13:50:38.511Z,40.67
2023-05-12T13:53:05.128Z,40.41
2023-05-12T13:55:33.978Z,39.44
2023-05-12T13:58:00.688Z,39.39
2023-05-12T14:00:29.833Z,38.85
2023-05-12T14:02:58.094Z,38.97
2023-05-12T14:05:24.966Z,38.51
2023-05-12T14:07:51.812Z,38.28
2023-05-12T14:10:18.875Z,40.09
2023-05-12T14:12:45.724Z,39.58
2023-05-12T14:17:46.402Z,40.90
2023-05-12T14:20:13.205Z,39.43
2023-05-12T14:22:39.908Z,39.32
2023-05-12T14:25:06.813Z,40.61
2023-05-12T14:27:33.446Z,42.02
2023-05-12T14:30:00.208Z,42.21
2023-05-12T14:32:27.025Z,41.22
2023-05-12T14:34:53.687Z,40.62
2023-05-12T14:37:20.311Z,42.12
2023-05-12T14:39:46.955Z,42.51
2023-05-12T14:42:13.539Z,39.55
2023-05-12T14:44:40.255Z,44.86
2023-05-12T14:47:09.166Z,47.16
2023-05-12T14:49:36.084Z,47.03
2023-05-12T14:52:03.002Z,47.86
2023-05-12T14:54:29.713Z,46.69
2023-05-12T14:56:56.783Z,46.55
2023-05-12T14:59:23.612Z,47.07
2023-05-12T15:01:50.573Z,48.49
2023-05-12T15:04:17.486Z,48.53
2023-05-12T15:06:44.171Z,48.50
2023-05-12T15:09:10.971Z,49.08
2023-05-12T15:11:37.816Z,49.68
2023-05-12T15:14:04.944Z,49.76
2023-05-12T15:16:32.910Z,50.31
2023-05-12T15:18:59.894Z,49.93
2023-05-12T15:21:26.544Z,50.67
2023-05-12T15:23:53.190Z,49.82
2023-05-12T15:28:49.409Z,48.17
2023-05-12T15:31:16.120Z,49.95
2023-05-12T15:33:42.809Z,50.04
2023-05-12T15:36:11.429Z,49.47
2023-05-12T15:38:38.159Z,49.95
2023-05-12T15:41:04.868Z,50.58
2023-05-12T15:43:31.501Z,51.08
2023-05-12T15:45:58.349Z,51.76
2023-05-12T15:48:24.990Z,51.49
2023-05-12T15:50:51.613Z,52.95
2023-05-12T15:53:18.245Z,54.12
2023-05-12T15:55:45.070Z,53.90
2023-05-12T15:58:11.879Z,54.61
2023-05-12T16:00:38.774Z,54.96
2023-05-12T16:03:05.685Z,54.72
2023-05-12T16:05:34.122Z,55.31
2023-05-12T16:08:00.712Z,55.52
2023-05-12T16:10:27.613Z,55.13
2023-05-12T16:12:54.231Z,55.04
2023-05-12T16:15:21.012Z,55.20
2023-05-12T16:17:47.950Z,55.51
2023-05-12T16:20:15.178Z,55.76
2023-05-12T16:22:42.201Z,57.35
2023-05-12T16:25:09.206Z,57.46
2023-05-12T16:27:36.776Z,57.26
2023-05-12T16:30:03.909Z,57.39
2023-05-12T16:32:30.557Z,57.08
2023-05-12T16:34:57.578Z,56.80
2023-05-12T16:37:24.333Z,56.29
2023-05-12T16:39:50.937Z,56.85
2023-05-12T16:42:17.603Z,56.34
2023-05-12T16:44:44.251Z,56.14
2023-05-12T16:47:11.070Z,56.06
2023-05-12T16:49:37.687Z,56.32
2023-05-12T16:52:04.474Z,56.27
2023-05-12T16:54:31.882Z,56.71
2023-05-12T16:56:59.153Z,56.90
2023-05-12T16:59:25.883Z,57.56
2023-05-12T17:01:52.585Z,57.78
2023-05-12T17:04:19.262Z,58.74
2023-05-12T17:06:46.158Z,58.90
2023-05-12T17:09:13.158Z,58.78
2023-05-12T17:11:39.837Z,58.95
2023-05-12T17:14:06.707Z,59.59
2023-05-12T17:16:33.390Z,59.53
2023-05-12T17:21:29.580Z,60.81
2023-05-12T17:23:57.240Z,61.64
2023-05-12T17:26:23.940Z,61.73
2023-05-12T17:28:50.571Z,62.47
2023-05-12T17:31:17.307Z,62.64
2023-05-12T17:33:43.987Z,63.35
2023-05-12T17:36:13.380Z,62.93
2023-05-12T17:38:40.400Z,63.69
2023-05-12T17:41:07.026Z,63.69
2023-05-12T17:43:33.714Z,64.52
2023-05-12T17:46:00.611Z,63.83
2023-05-12T17:48:27.786Z,64.34
2023-05-12T17:51:00.316Z,65.35
2023-05-12T17:53:27.003Z,65.80
2023-05-12T17:55:54.384Z,65.28
2023-05-12T17:58:21.780Z,65.36
2023-05-12T18:00:48.628Z,65.79
2023-05-12T18:03:15.982Z,65.55
2023-05-12T18:05:43.413Z,65.55
2023-05-12T18:08:10.048Z,66.02
2023-05-12T18:10:36.932Z,66.11
2023-05-12T18:13:03.708Z,66.32
2023-05-12T18:15:30.733Z,66.42
2023-05-12T18:18:01.318Z,66.39
2023-05-12T18:20:28.278Z,66.63
2023-05-12T18:22:54.921Z,66.39
2023-05-12T18:25:21.971Z,67.01
2023-05-12T18:27:48.955Z,67.24
2023-05-12T18:30:15.741Z,67.23
2023-05-12T18:32:42.510Z,67.42
2023-05-12T18:35:09.471Z,67.20
2023-05-12T18:37:36.106Z,68.06
2023-05-12T18:40:02.785Z,67.73
2023-05-12T18:42:29.446Z,67.91
2023-05-12T18:44:56.139Z,67.56
2023-05-12T18:47:22.806Z,67.59
2023-05-12T18:49:49.848Z,67.42
2023-05-12T18:52:16.545Z,67.88
2023-05-12T18:54:44.217Z,67.73
2023-05-12T18:57:11.376Z,67.55
2023-05-12T18:59:38.483Z,66.99
2023-05-12T19:02:05.343Z,67.24
2023-05-12T19:04:32.080Z,67.99
2023-05-12T19:06:58.711Z,68.73
2023-05-12T19:09:25.781Z,68.09
2023-05-12T19:11:52.428Z,68.02
2023-05-12T19:14:20.242Z,68.38
2023-05-12T19:16:47.053Z,69.01
2023-05-12T19:19:14.079Z,69.01
2023-05-12T19:21:40.844Z,68.82
2023-05-12T19:24:08.503Z,68.59
2023-05-12T19:26:35.136Z,69.30
2023-05-12T19:29:02.122Z,69.34
2023-05-12T19:31:28.834Z,69.55
2023-05-12T19:33:55.561Z,69.01
2023-05-12T19:36:22.205Z,69.43
2023-05-12T19:38:48.827Z,69.48
2023-05-12T19:41:15.550Z,69.21
2023-05-12T19:43:42.185Z,68.91
2023-05-12T19:46:08.909Z,69.11
2023-05-12T19:48:35.580Z,69.01
2023-05-12T19:51:02.299Z,69.32
2023-05-12T19:53:29.507Z,69.57
2023-05-12T19:55:56.793Z,69.75
2023-05-12T19:58:23.508Z,69.37
2023-05-12T20:00:50.423Z,69.46
2023-05-12T20:03:17.216Z,69.45
2023-05-12T20:05:44.315Z,69.25
2023-05-12T20:08:11.436Z,69.89
2023-05-12T20:10:38.105Z,69.69
2023-05-12T20:13:04.796Z,69.30
2023-05-12T20:15:31.921Z,69.09
2023-05-12T20:17:58.885Z,68.97
2023-05-12T20:20:25.566Z,69.30
2023-05-12T20:22:52.353Z,69.38
2023-05-12T20:25:19.849Z,68.92
2023-05-12T20:27:46.884Z,69.12
2023-05-12T20:30:13.820Z,69.03
2023-05-12T20:32:40.711Z,69.10
2023-05-12T20:35:07.723Z,69.11
2023-05-12T20:37:34.467Z,69.17
2023-05-12T20:40:01.285Z,69.68
2023-05-12T20:42:27.920Z,69.91
2023-05-12T20:44:55.325Z,70.91
2023-05-12T20:47:22.040Z,72.18
2023-05-12T20:49:48.857Z,71.63
2023-05-12T20:52:15.571Z,71.12
2023-05-12T20:54:42.216Z,71.56
2023-05-12T20:57:10.349Z,70.84
2023-05-12T20:59:36.966Z,71.46
2023-05-12T21:02:03.753Z,71.52
2023-05-12T21:04:30.379Z,71.50
2023-05-12T21:06:57.571Z,71.66
2023-05-12T21:09:24.281Z,71.75
2023-05-12T21:11:51.010Z,72.41
2023-05-12T21:14:17.729Z,72.36
2023-05-12T21:16:44.439Z,72.37
2023-05-12T21:19:11.217Z,72.70
2023-05-12T21:21:37.998Z,72.92
2023-05-12T21:24:05.134Z,73.01
2023-05-12T21:26:32.115Z,72.38
2023-05-12T21:29:02.814Z,72.27
2023-05-12T21:31:30.171Z,72.54
2023-05-12T21:33:56.832Z,73.01
2023-05-12T21:36:23.457Z,72.63
2023-05-12T21:38:50.194Z,72.44
2023-05-12T21:41:16.816Z,72.96
2023-05-12T21:43:43.416Z,72.54
2023-05-12T21:46:10.097Z,72.53
2023-05-12T21:48:36.794Z,72.98
2023-05-12T21:51:03.548Z,73.00
2023-05-12T21:53:30.490Z,73.82
2023-05-12T21:55:57.725Z,73.33
2023-05-12T21:58:24.667Z,73.14
2023-05-12T22:00:51.645Z,72.78
2023-05-12T22:03:20.435Z,72.58
2023-05-12T22:05:47.252Z,72.84
2023-05-12T22:08:14.102Z,72.29
2023-05-12T22:10:40.781Z,72.75
2023-05-12T22:13:07.485Z,72.40
2023-05-12T22:15:34.550Z,72.45
2023-05-12T22:18:01.381Z,73.36
2023-05-12T22:20:28.223Z,72.92
2023-05-12T22:22:54.893Z,72.88
2023-05-12T22:25:21.509Z,72.60
2023-05-12T22:27:48.170Z,73.20
2023-05-12T22:30:14.855Z,73.40
2023-05-12T22:32:41.450Z,73.36
2023-05-12T22:35:08.750Z,73.81
2023-05-12T22:37:35.486Z,73.52
2023-05-12T22:40:02.490Z,73.83
2023-05-12T22:42:29.113Z,73.77
2023-05-12T22:44:57.434Z,73.36
2023-05-12T22:47:24.184Z,73.43
2023-05-12T22:49:51.061Z,73.74
2023-05-12T22:52:17.662Z,73.68
2023-05-12T22:54:44.328Z,73.12
2023-05-12T22:57:11.122Z,73.88
2023-05-12T23:00:14.329Z,73.88
2023-05-12T23:02:41.012Z,73.38
2023-05-12T23:05:08.048Z,73.80
2023-05-12T23:07:34.717Z,73.65
2023-05-12T23:10:01.350Z,73.15
2023-05-12T23:12:28.255Z,73.19
2023-05-12T23:14:55.000Z,73.81
2023-05-12T23:17:21.777Z,73.48
2023-05-12T23:19:48.450Z,73.25
2023-05-12T23:22:15.134Z,73.59
2023-05-12T23:24:41.773Z,73.59
2023-05-12T23:27:08.474Z,73.59
2023-05-12T23:29:35.198Z,73.28
2023-05-12T23:32:02.472Z,73.35
2023-05-12T23:34:29.187Z,73.24
2023-05-12T23:36:55.881Z,73.11
2023-05-12T23:39:22.511Z,73.03
2023-05-12T23:41:49.838Z,73.42
2023-05-12T23:44:16.590Z,73.24
2023-05-12T23:46:43.352Z,72.99
2023-05-12T23:49:10.201Z,73.18
2023-05-12T23:51:36.872Z,73.25
2023-05-12T23:54:03.527Z,73.28
2023-05-12T23:56:30.151Z,72.65
2023-05-12T23:58:56.754Z,73.30
